createdAt,value
2023-04-18T00:00:24.873Z,7.71
2023-04-18T00:02:53.964Z,7.68
2023-04-18T00:05:23.624Z,7.70
2023-04-18T00:07:53.424Z,7.73
2023-04-18T00:10:20.050Z,7.71
2023-04-18T00:12:47.242Z,7.74
2023-04-18T00:15:14.150Z,7.71
2023-04-18T00:17:43.555Z,7.71
2023-04-18T00:20:11.336Z,7.72
2023-04-18T00:22:42.843Z,7.75
2023-04-18T00:25:12.227Z,7.79
2023-04-18T00:27:39.723Z,7.82
2023-04-18T00:30:09.308Z,7.78
2023-04-18T00:32:36.036Z,7.78
2023-04-18T00:35:05.951Z,7.81
2023-04-18T00:37:32.517Z,7.80
2023-04-18T00:40:05.641Z,7.80
2023-04-18T00:42:33.558Z,7.83
2023-04-18T00:45:00.187Z,7.77
2023-04-18T00:47:26.893Z,7.76
2023-04-18T00:49:56.693Z,7.74
2023-04-18T00:52:27.262Z,7.81
2023-04-18T00:54:58.642Z,7.77
2023-04-18T00:57:25.207Z,7.77
2023-04-18T00:59:58.048Z,7.77
2023-04-18T01:02:26.447Z,7.78
2023-04-18T01:04:53.196Z,7.77
2023-04-18T01:07:19.734Z,7.77
2023-04-18T01:09:47.052Z,7.78
2023-04-18T01:12:13.634Z,7.78
2023-04-18T01:14:45.698Z,7.81
2023-04-18T01:17:14.441Z,7.76
2023-04-18T01:19:44.492Z,7.81
2023-04-18T01:22:16.264Z,7.82
2023-04-18T01:24:42.894Z,7.76
2023-04-18T01:27:14.531Z,7.79
2023-04-18T01:29:41.110Z,7.91
2023-04-18T01:32:10.271Z,7.80
2023-04-18T01:34:36.908Z,7.77
2023-04-18T01:37:03.524Z,7.80
2023-04-18T01:39:32.385Z,7.77
2023-04-18T01:41:59.002Z,7.80
2023-04-18T01:44:25.907Z,7.81
2023-04-18T01:46:52.470Z,7.80
2023-04-18T01:49:19.061Z,7.79
2023-04-18T01:51:48.083Z,7.80
2023-04-18T01:54:15.213Z,7.81
2023-04-18T01:56:46.582Z,7.84
2023-04-18T01:59:13.107Z,7.89
2023-04-18T02:01:44.940Z,7.83
2023-04-18T02:04:14.333Z,7.83
2023-04-18T02:06:43.116Z,7.79
2023-04-18T02:09:09.650Z,7.80
2023-04-18T02:11:38.441Z,7.81
2023-04-18T02:14:05.033Z,7.80
2023-04-18T02:16:31.644Z,7.85
2023-04-18T02:18:58.201Z,7.76
2023-04-18T02:21:27.084Z,7.81
2023-04-18T02:23:55.847Z,7.80
2023-04-18T02:26:25.123Z,7.81
2023-04-18T02:28:53.901Z,7.79
2023-04-18T02:31:20.551Z,7.80
2023-04-18T02:33:50.187Z,7.85
2023-04-18T02:36:16.729Z,7.86
2023-04-18T02:38:45.790Z,7.83
2023-04-18T02:41:18.104Z,7.83
2023-04-18T02:43:44.712Z,7.80
2023-04-18T02:46:11.619Z,7.83
2023-04-18T02:48:38.272Z,7.80
2023-04-18T02:51:06.039Z,7.83
2023-04-18T02:53:32.864Z,7.86
2023-04-18T02:56:02.566Z,7.83
2023-04-18T02:58:34.769Z,7.83
2023-04-18T03:01:01.318Z,7.84
2023-04-18T03:03:30.935Z,7.86
2023-04-18T03:06:00.553Z,7.84
2023-04-18T03:08:29.466Z,7.83
2023-04-18T03:10:58.496Z,7.82
2023-04-18T03:13:25.418Z,7.84
2023-04-18T03:15:52.305Z,7.85
2023-04-18T03:18:20.941Z,7.84
2023-04-18T03:20:49.895Z,7.85
2023-04-18T03:23:16.508Z,7.80
2023-04-18T03:25:43.072Z,7.81
2023-04-18T03:28:09.633Z,7.81
2023-04-18T03:30:39.170Z,7.88
2023-04-18T03:33:08.651Z,7.89
2023-04-18T03:35:35.198Z,7.82
2023-04-18T03:38:01.796Z,7.85
2023-04-18T03:40:30.621Z,7.88
2023-04-18T03:43:00.504Z,7.86
2023-04-18T03:45:27.115Z,7.86
2023-04-18T03:47:53.767Z,7.85
2023-04-18T03:50:20.573Z,7.83
2023-04-18T03:52:47.161Z,7.85
2023-04-18T03:55:16.113Z,7.85
2023-04-18T03:57:44.908Z,7.84
2023-04-18T04:00:12.412Z,7.82
2023-04-18T04:02:39.472Z,7.76
2023-04-18T04:05:09.030Z,7.78
2023-04-18T04:07:38.161Z,7.81
2023-04-18T04:10:07.238Z,7.79
2023-04-18T04:12:36.200Z,7.79
2023-04-18T04:15:02.810Z,7.78
2023-04-18T04:17:31.881Z,7.81
2023-04-18T04:19:58.408Z,7.78
2023-04-18T04:22:27.338Z,7.76
2023-04-18T04:24:57.823Z,7.84
2023-04-18T04:27:25.127Z,7.85
2023-04-18T04:29:52.339Z,7.82
2023-04-18T04:32:20.409Z,7.84
2023-04-18T04:34:51.899Z,7.82
2023-04-18T04:37:21.450Z,7.86
2023-04-18T04:39:52.869Z,7.85
2023-04-18T04:42:25.116Z,7.85
2023-04-18T04:44:53.664Z,7.84
2023-04-18T04:47:20.615Z,7.87
2023-04-18T04:49:47.180Z,7.86
2023-04-18T04:52:13.729Z,7.83
2023-04-18T04:54:44.910Z,7.90
2023-04-18T04:57:16.341Z,7.81
2023-04-18T04:59:42.896Z,7.83
2023-04-18T05:02:11.629Z,7.92
2023-04-18T05:04:38.473Z,7.86
2023-04-18T05:07:05.785Z,7.85
2023-04-18T05:09:32.330Z,7.86
2023-04-18T05:12:01.518Z,7.84
2023-04-18T05:14:28.123Z,7.86
2023-04-18T05:16:58.106Z,7.88
2023-04-18T05:19:25.197Z,7.89
2023-04-18T05:21:54.226Z,7.83
2023-04-18T05:24:23.108Z,7.87
2023-04-18T05:26:50.232Z,7.85
2023-04-18T05:29:16.941Z,7.89
2023-04-18T05:31:43.596Z,7.83
2023-04-18T05:34:10.220Z,7.90
2023-04-18T05:36:39.295Z,7.87
2023-04-18T05:39:05.855Z,7.89
2023-04-18T05:41:32.454Z,7.90
2023-04-18T05:44:05.329Z,7.87
2023-04-18T05:46:32.993Z,7.96
2023-04-18T05:49:02.182Z,7.97
2023-04-18T05:51:31.377Z,7.92
2023-04-18T05:53:57.944Z,7.90
2023-04-18T05:56:24.606Z,7.93
2023-04-18T05:58:53.577Z,7.96
2023-04-18T06:01:22.417Z,7.97
2023-04-18T06:03:49.073Z,7.97
2023-04-18T06:06:15.949Z,7.96
2023-04-18T06:08:45.095Z,7.94
2023-04-18T06:11:15.057Z,7.98
2023-04-18T06:13:43.924Z,7.98
2023-04-18T06:16:10.624Z,8.04
2023-04-18T06:18:37.335Z,7.98
2023-04-18T06:21:04.003Z,7.96
2023-04-18T06:23:30.528Z,8.03
2023-04-18T06:25:59.549Z,8.07
2023-04-18T06:28:26.452Z,8.08
2023-04-18T06:30:53.019Z,8.14
2023-04-18T06:33:21.806Z,8.23
2023-04-18T06:35:51.102Z,8.21
2023-04-18T06:38:17.709Z,8.27
2023-04-18T06:40:46.507Z,8.33
2023-04-18T06:43:13.101Z,8.42
2023-04-18T06:45:39.739Z,8.51
2023-04-18T06:48:10.745Z,8.49
2023-04-18T06:50:39.638Z,8.51
2023-04-18T06:53:08.673Z,8.48
2023-04-18T06:55:35.920Z,8.50
2023-04-18T06:58:05.526Z,8.68
2023-04-18T07:00:32.101Z,8.68
2023-04-18T07:02:58.824Z,8.71
2023-04-18T07:05:25.481Z,8.64
2023-04-18T07:07:55.097Z,8.81
2023-04-18T07:10:21.771Z,8.72
2023-04-18T07:12:50.866Z,8.91
2023-04-18T07:15:20.038Z,9.10
2023-04-18T07:17:48.963Z,8.76
2023-04-18T07:20:18.043Z,8.88
2023-04-18T07:22:48.080Z,9.10
2023-04-18T07:25:16.776Z,8.97
2023-04-18T07:27:45.574Z,9.14
2023-04-18T07:30:12.490Z,9.32
2023-04-18T07:32:41.361Z,9.47
2023-04-18T07:35:15.329Z,9.34
2023-04-18T07:37:41.944Z,9.10
2023-04-18T07:40:12.122Z,9.18
2023-04-18T07:42:43.369Z,9.17
2023-04-18T07:45:12.803Z,9.18
2023-04-18T07:47:44.483Z,9.22
2023-04-18T07:50:14.025Z,9.20
2023-04-18T07:52:40.537Z,9.36
2023-04-18T07:55:07.544Z,9.22
2023-04-18T07:57:34.272Z,9.23
2023-04-18T08:00:00.955Z,9.25
2023-04-18T08:02:27.593Z,9.06
2023-04-18T08:04:56.785Z,9.03
2023-04-18T08:07:28.222Z,9.15
2023-04-18T08:09:54.818Z,9.32
2023-04-18T08:12:23.843Z,9.34
2023-04-18T08:14:50.407Z,9.38
2023-04-18T08:17:17.152Z,9.42
2023-04-18T08:19:45.108Z,9.53
2023-04-18T08:22:12.035Z,9.81
2023-04-18T08:24:44.556Z,10.01
2023-04-18T08:27:17.855Z,9.63
2023-04-18T08:29:46.589Z,9.79
2023-04-18T08:32:13.129Z,10.10
2023-04-18T08:34:43.491Z,10.27
2023-04-18T08:37:10.232Z,10.56
2023-04-18T08:39:41.535Z,10.33
2023-04-18T08:42:10.474Z,10.11
2023-04-18T08:44:39.578Z,9.85
2023-04-18T08:47:09.579Z,9.93
2023-04-18T08:49:36.159Z,10.15
2023-04-18T08:52:12.360Z,10.49
2023-04-18T08:54:42.015Z,10.50
2023-04-18T08:57:16.522Z,10.36
2023-04-18T08:59:50.397Z,10.33
2023-04-18T09:02:19.242Z,10.30
2023-04-18T09:04:49.065Z,10.21
2023-04-18T09:07:17.401Z,9.93
2023-04-18T09:09:52.638Z,10.36
2023-04-18T09:12:22.715Z,10.26
2023-04-18T09:14:57.511Z,10.11
2023-04-18T09:17:33.406Z,10.35
2023-04-18T09:20:01.853Z,10.01
2023-04-18T09:22:52.178Z,10.16
2023-04-18T09:25:45.033Z,10.22
2023-04-18T09:28:33.102Z,10.17
2023-04-18T09:31:17.467Z,10.57
2023-04-18T09:33:54.462Z,10.80
2023-04-18T09:36:24.049Z,10.43
2023-04-18T09:38:54.456Z,10.73
2023-04-18T09:41:24.637Z,11.10
2023-04-18T09:44:15.288Z,11.20
2023-04-18T09:46:47.372Z,11.39
2023-04-18T09:49:17.670Z,11.74
2023-04-18T09:51:50.214Z,12.04
2023-04-18T09:54:20.738Z,12.54
2023-04-18T09:56:50.704Z,13.12
2023-04-18T09:59:42.699Z,12.85
2023-04-18T10:02:22.569Z,12.54
2023-04-18T10:04:56.540Z,12.69
2023-04-18T10:07:28.360Z,12.32
2023-04-18T10:09:59.673Z,12.73
2023-04-18T10:12:28.765Z,12.59
2023-04-18T10:14:55.984Z,12.64
2023-04-18T10:17:25.539Z,12.47
2023-04-18T10:20:11.125Z,12.72
2023-04-18T10:22:40.239Z,12.55
2023-04-18T10:25:07.435Z,12.81
2023-04-18T10:27:51.763Z,12.87
2023-04-18T10:30:18.770Z,12.84
2023-04-18T10:32:50.521Z,12.49
2023-04-18T10:35:23.576Z,13.10
2023-04-18T10:38:01.903Z,12.92
2023-04-18T10:40:33.788Z,12.45
2023-04-18T10:43:00.624Z,12.78
2023-04-18T10:45:32.532Z,13.34
2023-04-18T10:48:30.017Z,13.04
2023-04-18T10:51:17.737Z,12.90
2023-04-18T10:53:50.993Z,12.88
2023-04-18T10:56:20.638Z,13.15
2023-04-18T10:58:53.658Z,12.85
2023-04-18T11:01:31.675Z,12.95
2023-04-18T11:04:02.453Z,12.99
2023-04-18T11:06:30.392Z,12.82
2023-04-18T11:09:13.993Z,12.79
2023-04-18T11:11:41.577Z,12.91
2023-04-18T11:14:08.266Z,13.33
2023-04-18T11:16:37.400Z,12.91
2023-04-18T11:19:28.269Z,12.94
2023-04-18T11:22:03.325Z,13.05
2023-04-18T11:24:29.984Z,13.22
2023-04-18T11:26:57.032Z,13.55
2023-04-18T11:29:26.105Z,13.08
2023-04-18T11:31:55.285Z,13.15
2023-04-18T11:34:29.911Z,13.31
2023-04-18T11:36:56.505Z,14.00
2023-04-18T11:39:25.539Z,13.63
2023-04-18T11:41:56.859Z,14.23
2023-04-18T11:44:24.826Z,14.39
2023-04-18T11:46:55.180Z,13.84
2023-04-18T11:49:34.398Z,13.32
2023-04-18T11:52:06.546Z,13.74
2023-04-18T11:54:45.651Z,13.45
2023-04-18T11:57:33.002Z,13.88
2023-04-18T12:00:01.042Z,13.91
2023-04-18T12:02:45.390Z,14.46
2023-04-18T12:05:14.986Z,14.56
2023-04-18T12:07:44.232Z,15.16
2023-04-18T12:10:22.107Z,14.84
2023-04-18T12:12:52.500Z,14.44
2023-04-18T12:15:20.268Z,13.96
2023-04-18T12:17:49.137Z,14.48
2023-04-18T12:20:16.149Z,14.55
2023-04-18T12:22:44.027Z,14.92
2023-04-18T12:25:29.111Z,14.83
2023-04-18T12:28:15.256Z,15.13
2023-04-18T12:30:42.393Z,14.33
2023-04-18T12:33:13.615Z,14.50
2023-04-18T12:35:40.452Z,14.88
2023-04-18T12:38:09.227Z,14.36
2023-04-18T12:40:39.567Z,14.06
2023-04-18T12:43:06.874Z,14.18
2023-04-18T12:45:35.818Z,14.13
2023-04-18T12:48:04.668Z,14.31
2023-04-18T12:50:31.371Z,14.39
2023-04-18T12:53:00.473Z,14.58
2023-04-18T12:55:29.024Z,14.64
2023-04-18T12:57:56.082Z,14.88
2023-04-18T13:00:24.376Z,14.93
2023-04-18T13:02:52.491Z,15.35
2023-04-18T13:05:25.099Z,14.39
2023-04-18T13:08:08.465Z,14.62
2023-04-18T13:10:39.766Z,15.25
2023-04-18T13:13:08.498Z,15.67
2023-04-18T13:15:35.114Z,15.56
2023-04-18T13:18:05.094Z,15.02
2023-04-18T13:20:32.539Z,15.27
2023-04-18T13:22:59.123Z,15.19
2023-04-18T13:25:26.619Z,14.78
2023-04-18T13:27:53.380Z,14.28
2023-04-18T13:30:20.071Z,14.88
2023-04-18T13:32:47.073Z,14.92
2023-04-18T13:35:13.826Z,15.44
2023-04-18T13:37:40.457Z,15.41
2023-04-18T13:40:08.007Z,15.26
2023-04-18T13:42:38.478Z,15.67
2023-04-18T13:45:05.807Z,15.45
2023-04-18T13:47:32.567Z,16.04
2023-04-18T13:49:59.413Z,16.04
2023-04-18T13:52:30.727Z,15.63
2023-04-18T13:54:57.330Z,14.91
2023-04-18T13:57:28.500Z,15.64
2023-04-18T13:59:55.071Z,14.79
2023-04-18T14:02:24.201Z,14.78
2023-04-18T14:04:52.152Z,15.41
2023-04-18T14:07:21.070Z,14.82
2023-04-18T14:09:48.202Z,14.85
2023-04-18T14:12:16.919Z,15.50
2023-04-18T14:14:45.682Z,15.25
2023-04-18T14:17:14.631Z,15.57
2023-04-18T14:19:43.532Z,15.82
2023-04-18T14:22:10.134Z,15.17
2023-04-18T14:24:36.693Z,14.89
2023-04-18T14:27:05.546Z,14.68
2023-04-18T14:29:34.332Z,14.80
2023-04-18T14:32:00.923Z,14.86
2023-04-18T14:34:27.482Z,15.45
2023-04-18T14:36:54.069Z,15.61
2023-04-18T14:39:22.869Z,15.39
2023-04-18T14:41:51.681Z,14.85
2023-04-18T14:44:20.990Z,14.46
2023-04-18T14:46:49.851Z,14.77
2023-04-18T14:49:16.616Z,14.66
2023-04-18T14:51:43.321Z,14.97
2023-04-18T14:54:09.913Z,15.10
2023-04-18T14:56:36.508Z,15.46
2023-04-18T14:59:05.324Z,15.54
2023-04-18T15:01:31.892Z,15.19
2023-04-18T15:04:03.669Z,15.04
2023-04-18T15:06:36.211Z,14.97
2023-04-18T15:09:02.855Z,14.94
2023-04-18T15:11:29.429Z,15.36
2023-04-18T15:13:57.051Z,15.34
2023-04-18T15:16:23.693Z,15.43
2023-04-18T15:18:52.515Z,15.78
2023-04-18T15:21:19.077Z,15.60
2023-04-18T15:23:47.869Z,15.94
2023-04-18T15:26:14.661Z,16.23
2023-04-18T15:28:46.606Z,16.23
2023-04-18T15:31:14.330Z,16.14
2023-04-18T15:33:43.056Z,15.82
2023-04-18T15:36:14.497Z,15.41
2023-04-18T15:38:44.035Z,15.11
2023-04-18T15:41:10.670Z,15.70
2023-04-18T15:43:41.752Z,16.34
2023-04-18T15:46:09.321Z,15.93
2023-04-18T15:48:38.258Z,15.72
2023-04-18T15:51:07.678Z,15.45
2023-04-18T15:53:39.186Z,15.05
2023-04-18T15:56:06.428Z,14.94
2023-04-18T15:58:33.005Z,14.96
2023-04-18T16:01:02.820Z,15.14
2023-04-18T16:03:29.551Z,15.21
2023-04-18T16:05:56.322Z,15.22
2023-04-18T16:08:25.179Z,15.39
2023-04-18T16:10:54.265Z,15.46
2023-04-18T16:13:23.355Z,15.93
2023-04-18T16:15:50.035Z,15.40
2023-04-18T16:18:16.644Z,15.28
2023-04-18T16:20:43.326Z,15.13
2023-04-18T16:23:09.911Z,14.85
2023-04-18T16:25:36.482Z,14.80
2023-04-18T16:28:03.382Z,14.77
2023-04-18T16:30:30.034Z,14.87
2023-04-18T16:32:56.999Z,14.89
2023-04-18T16:35:23.758Z,14.98
2023-04-18T16:37:53.799Z,14.88
2023-04-18T16:40:20.602Z,14.79
2023-04-18T16:42:47.188Z,14.52
2023-04-18T16:45:13.978Z,14.48
2023-04-18T16:47:40.715Z,14.40
2023-04-18T16:50:10.183Z,14.55
2023-04-18T16:52:39.310Z,14.71
2023-04-18T16:55:11.426Z,14.51
2023-04-18T16:57:40.252Z,14.53
2023-04-18T17:00:08.368Z,14.55
2023-04-18T17:02:39.681Z,14.56
2023-04-18T17:05:06.753Z,14.41
2023-04-18T17:07:35.997Z,14.26
2023-04-18T17:10:03.031Z,14.12
2023-04-18T17:12:29.606Z,14.14
2023-04-18T17:14:58.683Z,14.12
2023-04-18T17:17:25.353Z,14.00
2023-04-18T17:19:51.917Z,13.87
2023-04-18T17:22:18.475Z,13.66
2023-04-18T17:24:45.011Z,13.64
2023-04-18T17:27:13.654Z,13.59
2023-04-18T17:29:40.913Z,13.37
2023-04-18T17:32:07.780Z,13.31
2023-04-18T17:34:34.568Z,13.31
2023-04-18T17:37:03.442Z,13.28
2023-04-18T17:39:31.257Z,13.16
2023-04-18T17:42:01.043Z,13.16
2023-04-18T17:44:30.635Z,13.02
2023-04-18T17:46:57.173Z,13.06
2023-04-18T17:49:23.856Z,13.07
2023-04-18T17:51:52.781Z,12.95
2023-04-18T17:54:19.339Z,12.84
2023-04-18T17:56:50.505Z,12.86
2023-04-18T17:59:19.612Z,12.75
2023-04-18T18:01:48.812Z,12.62
2023-04-18T18:04:19.845Z,12.56
2023-04-18T18:06:56.372Z,12.55
2023-04-18T18:09:22.958Z,12.26
2023-04-18T18:11:53.990Z,12.36
2023-04-18T18:14:22.012Z,12.31
2023-04-18T18:16:51.280Z,12.28
2023-04-18T18:19:18.076Z,12.21
2023-04-18T18:21:47.212Z,12.22
2023-04-18T18:24:13.990Z,11.99
2023-04-18T18:26:41.009Z,11.91
2023-04-18T18:29:11.190Z,11.91
2023-04-18T18:31:38.822Z,11.81
2023-04-18T18:34:08.351Z,11.86
2023-04-18T18:36:34.958Z,11.81
2023-04-18T18:39:01.576Z,11.70
2023-04-18T18:41:33.080Z,11.69
2023-04-18T18:43:59.647Z,11.60
2023-04-18T18:46:27.279Z,11.60
2023-04-18T18:48:53.959Z,11.47
2023-04-18T18:51:23.804Z,11.47
2023-04-18T18:53:50.605Z,11.43
2023-04-18T18:56:29.416Z,11.35
2023-04-18T18:58:58.295Z,11.29
2023-04-18T19:01:28.747Z,11.33
2023-04-18T19:03:58.273Z,11.29
2023-04-18T19:06:28.616Z,11.21
2023-04-18T19:08:57.513Z,11.15
2023-04-18T19:11:27.868Z,11.24
2023-04-18T19:13:56.714Z,11.12
2023-04-18T19:16:23.363Z,11.03
2023-04-18T19:18:54.826Z,11.05
2023-04-18T19:21:21.452Z,10.95
2023-04-18T19:23:48.068Z,11.03
2023-04-18T19:26:19.365Z,10.93
2023-04-18T19:28:46.051Z,10.82
2023-04-18T19:31:12.667Z,10.83
2023-04-18T19:33:41.829Z,10.81
2023-04-18T19:36:11.438Z,10.84
2023-04-18T19:38:37.980Z,10.80
2023-04-18T19:41:06.864Z,10.68
2023-04-18T19:43:40.270Z,10.62
2023-04-18T19:46:06.850Z,10.68
2023-04-18T19:48:33.633Z,10.65
2023-04-18T19:51:04.228Z,10.62
2023-04-18T19:53:31.060Z,10.58
2023-04-18T19:55:57.781Z,10.59
2023-04-18T19:58:46.838Z,10.58
2023-04-18T20:01:14.608Z,10.51
2023-04-18T20:03:43.526Z,10.48
2023-04-18T20:06:10.863Z,10.48
2023-04-18T20:08:41.521Z,10.52
2023-04-18T20:11:11.540Z,10.42
2023-04-18T20:13:41.337Z,10.37
2023-04-18T20:16:08.999Z,10.32
2023-04-18T20:18:40.207Z,10.27
2023-04-18T20:21:10.841Z,10.25
2023-04-18T20:23:42.157Z,10.15
2023-04-18T20:26:12.076Z,10.19
2023-04-18T20:28:38.696Z,10.12
2023-04-18T20:31:07.834Z,10.24
2023-04-18T20:33:36.546Z,10.09
2023-04-18T20:36:03.597Z,10.14
2023-04-18T20:38:32.709Z,10.10
2023-04-18T20:41:00.814Z,10.03
2023-04-18T20:43:29.717Z,10.04
2023-04-18T20:45:58.686Z,9.97
2023-04-18T20:48:25.566Z,9.88
2023-04-18T20:50:52.156Z,9.94
2023-04-18T20:53:21.126Z,9.92
2023-04-18T20:55:48.577Z,9.94
2023-04-18T20:58:15.205Z,9.85
2023-04-18T21:00:44.876Z,9.84
2023-04-18T21:03:14.914Z,9.81
2023-04-18T21:05:43.287Z,9.83
2023-04-18T21:08:14.650Z,9.79
2023-04-18T21:10:41.237Z,9.80
2023-04-18T21:13:09.241Z,9.71
2023-04-18T21:15:36.037Z,9.74
2023-04-18T21:18:02.712Z,9.73
2023-04-18T21:20:29.312Z,9.62
2023-04-18T21:22:55.896Z,9.59
2023-04-18T21:25:24.956Z,9.71
2023-04-18T21:27:51.862Z,9.68
2023-04-18T21:30:21.246Z,9.66
2023-04-18T21:32:51.547Z,9.57
2023-04-18T21:35:22.593Z,9.60
2023-04-18T21:37:50.918Z,9.56
2023-04-18T21:40:17.573Z,9.53
2023-04-18T21:42:48.154Z,9.46
2023-04-18T21:45:17.427Z,9.49
2023-04-18T21:47:44.044Z,9.52
2023-04-18T21:50:15.291Z,9.53
2023-04-18T21:52:41.909Z,9.49
2023-04-18T21:55:13.410Z,9.45
2023-04-18T21:57:42.230Z,9.38
2023-04-18T22:00:11.201Z,9.33
2023-04-18T22:02:40.895Z,9.34
2023-04-18T22:05:13.952Z,9.37
2023-04-18T22:07:54.471Z,9.28
2023-04-18T22:10:25.054Z,9.29
2023-04-18T22:12:54.093Z,9.37
2023-04-18T22:15:20.729Z,9.24
2023-04-18T22:17:52.078Z,9.28
2023-04-18T22:20:21.642Z,9.19
2023-04-18T22:22:48.295Z,9.13
2023-04-18T22:25:15.026Z,9.09
2023-04-18T22:27:45.065Z,9.14
2023-04-18T22:30:12.400Z,9.12
2023-04-18T22:32:41.880Z,9.05
2023-04-18T22:35:08.999Z,9.06
2023-04-18T22:37:38.275Z,9.03
2023-04-18T22:40:05.544Z,8.97
2023-04-18T22:42:35.645Z,8.99
2023-04-18T22:45:09.920Z,9.01
2023-04-18T22:47:38.725Z,8.94
2023-04-18T22:50:06.289Z,8.91
2023-04-18T22:52:35.385Z,8.91
2023-04-18T22:55:02.752Z,8.97
2023-04-18T22:57:29.391Z,8.91
2023-04-18T22:59:56.473Z,8.92
2023-04-18T23:02:25.236Z,8.93
2023-04-18T23:04:53.384Z,8.96
2023-04-18T23:07:20.062Z,8.96
2023-04-18T23:09:46.617Z,8.95
2023-04-18T23:12:15.706Z,8.97
2023-04-18T23:14:42.292Z,8.94
2023-04-18T23:17:08.865Z,8.96
2023-04-18T23:19:37.609Z,8.92
2023-04-18T23:22:04.216Z,8.91
2023-04-18T23:24:31.475Z,8.89
2023-04-18T23:27:01.487Z,8.89
2023-04-18T23:29:28.141Z,8.88
2023-04-18T23:31:54.691Z,8.87
2023-04-18T23:34:21.304Z,8.88
2023-04-18T23:36:50.218Z,8.89
2023-04-18T23:39:18.550Z,8.88
2023-04-18T23:41:47.836Z,8.91
2023-04-18T23:44:16.830Z,8.93
2023-04-18T23:46:43.490Z,8.89
2023-04-18T23:49:12.296Z,8.87
2023-04-18T23:51:38.815Z,8.86
2023-04-18T23:54:05.655Z,8.86
2023-04-18T23:56:34.405Z,8.88
2023-04-18T23:59:00.973Z,8.91
